Terminal Aerodrome Forecast
Issued by NWS

Home | Current Version | Previous Version | Text Only | Print | Product List | Glossary On
Versions: 1 2 3 4 5 6 7 8 9 10 11 12 13 14 15 16 17 18
000
FTUS43 KMPX 171100
TAFRNH
TAF
KRNH 171137Z 1712/1812 35013KT P6SM BKN010 OVC015
     FM171600 34010KT P6SM OVC025
     FM172000 32007KT P6SM SCT040
     FM180000 32003KT P6SM SCT250
     FM180600 VRB02KT P6SM SCT150=

USA.gov is the U.S. government's official web portal to all federal, state and local government web resources and services.